KFET/FET METAR and TAF weather

Enter ICAO airport designator
Station Type Date Time Source
KFET METAR 2022/10/01 07:35 UTC NOAA

KFET 010735Z AUTO 14006KT 10SM CLR 15/06 A3009 RMK AO2 T01520057


Station Type Date Time Source
KFET Decoded METAR 2022/10/01 07:35 UTC NOAA

Fremont Municipal Airport, NE, United States (KFET) 41-27N 096-31W
Oct 01, 2022 - 03:35 AM EDT / 2022.10.01 0735 UTC
Wind: from the SE (140 degrees) at 7 MPH (6 KT):0
Visibility: 10 mile(s):0
Sky conditions: clear
Temperature: 59.4 F (15.2 C)
Dew Point: 42.3 F (5.7 C)
Relative Humidity: 53%
Pressure (altimeter): 30.09 in. Hg (1018 hPa)
ob: KFET 010735Z AUTO 14006KT 10SM CLR 15/06 A3009 RMK AO2 T01520057
cycle: 7

Station Type Date Time Source
KFET TAF UTC NOAA

Error!

Example: see airport list